KGCNKMMH

Guest
Details From KGCN - GRAND CANYON NATIONAL PARK
To KMMH - Mammoth Yosemite
Flight Number -
Tags generated
Created
Modified
Stats Distance 353 nm / 653 km
Max Altitude 34,000 ft / 10,363 m
Waypoints 7
Social Downloads 1
Likes 0
Share VATSIM

Download

Looking for another format? Having issues loading an existing format? Contact us
Advertisement - Login to hide

Notes

Basic altitude profile: - Ascent Rate: 2500ft/min - Ascent Speed: 250kts - Cruise Altitude: 25000ft - Cruise Speed: 420kts - Descent Rate: 1500ft/min - Descent Speed: 250kts Options: - Use NATs: yes - Use PACOTS: yes - Use low airways: yes - Use high airways: yes

Route

KGCN CROWE ACLAM BLD J92 BTY TACUS KMMH

ID Type Via Altitude Latitude Longitude Leg Dist Tot Dist Heading (true) Name
O KGCN APT - 0 ft / 0 m 35.95237˚ -112.14692˚ - 0 nm - GRAND CANYON NATIONAL PARK
CROWE FIX - 34,000 ft / 10,363 m 36.07423˚ -114.33273˚ 106 nm 106 nm 275° / 273° -
ACLAM FIX - 34,000 ft / 10,363 m 36.07509˚ -114.52259˚ 9 nm 115 nm 270° / 270° -
BLD DME - 34,000 ft / 10,363 m 35.99579˚ -114.86358˚ 17 nm 132 nm 254° / 254° BOULDER CITY VORTAC
BTY VOR J92 (AWY-HI) 24,900 ft / 7,590 m 36.80058˚ -116.74764˚ 103 nm 235 nm 299° / 297° BEATTY VORTAC
TACUS FIX - 20,900 ft / 6,370 m 37.08778˚ -116.90333˚ 18 nm 254 nm 337° / 337° -
O KMMH APT - 0 ft / 0 m 37.62405˚ -118.83874˚ 97 nm 352 nm 290° / 289° Mammoth Yosemite

Altitude Profile

Advertisement - Login to hide

Weather


0- 5 10 15 20 25 30 35+ Temperature / ° C

Clouds and Precipitation
Forecast for 2017-12-12 12:00 UTC. Updated 2 hours ago

Ground ~20,000 ft ~40,000 ft Winds

KGCN

Details ICAO KGCN (GCN)
Name GRAND CANYON NATIONAL PARK
Region United States
Timezone America/Phoenix (UTC-7.0)
Stats Elevation 6,609 ft / 2,014 m (AMSL)
Location 35.952369° -112.146919°
Runways 1
Magnetic Variation 10.745° E

METAR

KGCN 120854Z 06005KT 10SM CLR M09/M26 A3049 RMK AO2 SLP320 T10891261 53001

Decode

TAF

TAF KGCN 120538Z 1206/1306 VRB02KT P6SM FEW250 FM121600 05007KT P6SM SKC FM130100 VRB03KT P6SM SKC

Decode

Departure Runways

ID Width Length Bearing (true) Bearing (mag) Surface Threshold Offset Overrun Length
03 151 ft / 46 m 9,008 ft / 2,746 m 40.55° 29.81° Asphalt 0 ft / 0 m 0 ft / 0 m
21 151 ft / 46 m 9,008 ft / 2,746 m 220.57° 209.83° Asphalt 0 ft / 0 m 0 ft / 0 m

KMMH

Details ICAO KMMH (MMH)
Name Mammoth Yosemite
Region United States
Timezone America/Los_Angeles (UTC-8.0)
Stats Elevation 7,128 ft / 2,173 m (AMSL)
Location 37.624049° -118.838737°
Runways 1
Magnetic Variation 12.824° E

METAR

KMMH 120855Z AUTO 34004KT 10SM CLR M11/M17 A3057 RMK AO2 T11061169

Decode

TAF

TAF KMMH 120520Z 1206/1306 VRB04KT P6SM SCT250

Decode

Destination Runways

ID Width Length Bearing (true) Bearing (mag) Surface Threshold Offset Overrun Length
09 98 ft / 30 m 6,987 ft / 2,130 m 109.02° 96.20° Asphalt 0 ft / 0 m 2,999 ft / 914 m
27 98 ft / 30 m 6,987 ft / 2,130 m 289.03° 276.21° Asphalt 0 ft / 0 m 0 ft / 0 m

Popular Alternatives